Date,TemperatureHighF,TemperatureAvgF,TemperatureLowF,DewpointHighF,DewpointAvgF,DewpointLowF,HumidityHigh,HumidityAvg,HumidityLow,PressureMaxIn,PressureMinIn,WindSpeedMaxMPH,WindSpeedAvgMPH,GustSpeedMaxMPH,PrecipitationSumIn
2013-2-1,-200,0,200,-100,-100,-100,0,0,100,30.17,29.65,0,-999,0,0.00
2013-2-2,-200,0,200,-100,-100,-100,0,0,100,30.16,29.81,0,-999,0,0.00
2013-2-3,-200,0,200,-100,-100,-100,0,0,100,29.82,29.64,0,-999,0,0.00
2013-2-4,-200,0,200,-100,-100,-100,0,0,100,29.88,29.69,0,-999,0,0.00
2013-2-5,-200,0,200,-100,-100,-100,0,0,100,29.79,29.67,0,-999,0,0.00
2013-2-6,-200,0,200,-100,-100,-100,0,0,100,30.18,29.78,0,-999,0,0.00
2013-2-7,-200,0,200,-100,-100,-100,0,0,100,30.22,29.98,0,-999,0,0.00
2013-2-8,-200,0,200,-100,-100,-100,0,0,100,29.98,29.67,0,-999,0,0.00
2013-2-9,-200,0,200,-100,-100,-100,0,0,100,30.23,29.93,0,-999,0,0.00
2013-2-10,-200,0,200,-100,-100,-100,0,0,100,30.25,29.97,0,-999,0,0.00
2013-2-11,-200,0,200,-100,-100,-100,0,0,100,29.97,29.63,0,-999,0,0.00
2013-2-12,-200,0,200,-100,-100,-100,0,0,100,29.87,29.75,0,-999,0,0.00
2013-2-13,-200,0,200,-100,-100,-100,0,0,100,29.82,29.52,0,-999,0,0.00
2013-2-14,-200,0,200,-100,-100,-100,0,0,100,29.86,29.67,0,-999,0,0.00
2013-2-15,-200,0,200,-100,-100,-100,0,0,100,29.90,29.82,0,-999,0,0.00
2013-2-16,-200,0,200,-100,-100,-100,0,0,100,29.87,29.74,0,-999,0,0.00
2013-2-17,-200,0,200,-100,-100,-100,0,0,100,30.05,29.73,0,-999,0,0.00
2013-2-18,-200,0,200,-100,-100,-100,0,0,100,30.16,29.92,0,-999,0,0.00
2013-2-19,-200,0,200,-100,-100,-100,0,0,100,29.91,29.57,0,-999,0,0.00
2013-2-20,-200,0,200,-100,-100,-100,0,0,100,30.03,29.71,0,-999,0,0.00
2013-2-21,-200,0,200,-100,-100,-100,0,0,100,30.16,29.98,0,-999,0,0.00
2013-2-22,-200,0,200,-100,-100,-100,0,0,100,30.17,29.97,0,-999,0,0.00
2013-2-23,-200,0,200,-100,-100,-100,0,0,100,29.97,29.71,0,-999,0,0.00
2013-2-24,-200,0,200,-100,-100,-100,0,0,100,30.00,29.71,0,-999,0,0.00
2013-2-25,-200,0,200,-100,-100,-100,0,0,100,30.07,29.99,0,-999,0,0.00
2013-2-26,-200,0,200,-100,-100,-100,0,0,100,30.03,29.53,0,-999,0,0.00
2013-2-27,-200,0,200,-100,-100,-100,0,0,100,29.58,29.47,0,-999,0,0.00
2013-2-28,-200,0,200,-100,-100,-100,0,0,100,29.64,29.52,0,-999,0,0.00